Waynedale, Indiana
Current Conditions -  °F | °C
As of 6:54 PM on Monday 20 Oct 2014 (Local Time) from KFWA Reporting Station
Broken Clouds Broken Clouds  
Wind Chill: 59°   Ceiling: 7000
Heat Index: 59°   Visibility: 10mi
Dew Point: 48°   Wind: 5mph
Humidity: 67%   Direction: 320°NW
Pressure: 29.86"   Gusts: NA
Location:  40.9649°N, 85.1332°W
Report Text: KFWA 202254Z 32004KT 10SM BKN070 15/09 A2986 RMK AO2 SLP112 T01500089
Loading
Personal Weather Stations






























Interactive Weather Map
Tropical Storm Tracking
New forecast layout! Learn more

10-Day Weather Forecast

Advertisements
Track Severe Weather on mobile